createdAt,value
2019-02-16T00:00:23.971Z,12.60
2019-02-16T00:10:32.317Z,12.22
2019-02-16T00:15:40.473Z,12.41
2019-02-16T00:26:01.363Z,12.59
2019-02-16T00:30:48.663Z,12.27
2019-02-16T00:35:55.831Z,11.22
2019-02-16T00:41:04.009Z,12.46
2019-02-16T00:46:12.189Z,11.88
2019-02-16T00:51:19.671Z,12.27
2019-02-16T00:56:26.895Z,11.42
2019-02-16T01:01:34.552Z,12.45
2019-02-16T01:06:54.701Z,12.04
2019-02-16T01:11:42.094Z,12.15
2019-02-16T01:17:03.288Z,11.53
2019-02-16T01:21:50.692Z,12.64
2019-02-16T01:27:10.676Z,13.17
2019-02-16T01:31:58.864Z,13.39
2019-02-16T01:37:19.860Z,12.83
2019-02-16T01:42:08.120Z,12.59
2019-02-16T01:47:15.415Z,13.56
2019-02-16T01:57:23.626Z,13.24
2019-02-16T02:02:43.752Z,12.56
2019-02-16T02:07:44.703Z,12.94
2019-02-16T02:12:32.849Z,12.70
2019-02-16T02:17:54.023Z,12.77
2019-02-16T02:22:41.369Z,13.44
2019-02-16T02:28:01.495Z,13.64
2019-02-16T02:32:48.920Z,12.89
2019-02-16T02:37:56.113Z,13.40
2019-02-16T02:43:03.317Z,13.23
2019-02-16T02:48:11.478Z,13.25
2019-02-16T02:53:30.248Z,13.94
2019-02-16T02:58:27.075Z,14.48
2019-02-16T03:08:34.977Z,15.64
2019-02-16T03:18:45.108Z,14.58
2019-02-16T03:23:52.393Z,14.36
2019-02-16T03:29:00.537Z,15.56
2019-02-16T03:34:08.863Z,16.70
2019-02-16T03:39:16.102Z,17.34
2019-02-16T03:44:23.232Z,17.24
2019-02-16T03:49:31.280Z,15.56
2019-02-16T03:54:39.609Z,16.09
2019-02-16T03:59:46.817Z,12.37
2019-02-16T04:04:54.064Z,13.15
2019-02-16T04:10:02.260Z,7.92
2019-02-16T04:15:09.648Z,4.90
2019-02-16T04:20:16.856Z,4.55
2019-02-16T04:25:24.267Z,3.51
2019-02-16T04:30:31.534Z,3.85
2019-02-16T04:35:38.619Z,7.52
2019-02-16T04:40:46.652Z,7.98
2019-02-16T04:45:55.187Z,10.02
2019-02-16T04:51:02.315Z,10.35
2019-02-16T04:56:10.578Z,9.70
2019-02-16T05:01:18.667Z,6.21
2019-02-16T05:06:27.186Z,3.70
2019-02-16T05:11:35.595Z,2.87
2019-02-16T05:16:55.915Z,2.84
2019-02-16T05:21:43.023Z,2.03
2019-02-16T05:26:51.433Z,1.98
2019-02-16T05:31:58.702Z,2.15
2019-02-16T05:37:06.869Z,1.69
2019-02-16T05:42:15.138Z,1.75
2019-02-16T05:47:22.463Z,1.71
2019-02-16T05:52:30.538Z,1.64
2019-02-16T05:57:51.791Z,2.20
2019-02-16T06:07:39.826Z,3.87
2019-02-16T06:12:48.000Z,3.54
2019-02-16T06:17:55.340Z,3.35
2019-02-16T06:23:04.648Z,3.62
2019-02-16T06:28:09.988Z,3.23
2019-02-16T06:33:17.987Z,3.10
2019-02-16T06:38:26.296Z,3.42
2019-02-16T06:43:34.366Z,2.91
2019-02-16T06:53:43.276Z,2.61
2019-02-16T06:58:51.643Z,2.69
2019-02-16T07:03:58.909Z,2.43
2019-02-16T07:09:06.694Z,2.28
2019-02-16T07:14:13.943Z,2.27
2019-02-16T07:19:21.159Z,2.10
2019-02-16T07:24:29.211Z,2.01
2019-02-16T07:29:37.444Z,2.81
2019-02-16T07:34:45.650Z,2.69
2019-02-16T07:40:05.835Z,3.49
2019-02-16T07:44:54.029Z,3.25
2019-02-16T07:50:01.464Z,2.66
2019-02-16T07:55:08.707Z,3.34
2019-02-16T08:00:16.242Z,3.15
2019-02-16T08:05:23.503Z,3.63
2019-02-16T08:10:43.731Z,3.21
2019-02-16T08:15:31.907Z,3.10
2019-02-16T08:25:52.846Z,3.03
2019-02-16T08:30:40.247Z,3.23
2019-02-16T08:35:47.550Z,3.33
2019-02-16T08:40:55.096Z,3.21
2019-02-16T08:46:02.527Z,2.94
2019-02-16T08:51:09.900Z,2.44
2019-02-16T08:56:20.195Z,2.28
2019-02-16T09:01:27.659Z,2.27
2019-02-16T09:06:35.890Z,1.98
2019-02-16T09:11:43.039Z,1.39
2019-02-16T09:17:04.150Z,1.73
2019-02-16T09:22:04.405Z,1.84
2019-02-16T09:26:52.479Z,1.99
2019-02-16T09:31:59.736Z,1.97
2019-02-16T09:37:20.907Z,2.22
2019-02-16T09:42:08.234Z,3.39
2019-02-16T09:47:16.571Z,1.83
2019-02-16T09:52:23.870Z,2.15
2019-02-16T09:57:32.169Z,1.82
2019-02-16T10:02:52.346Z,2.08
2019-02-16T10:07:40.527Z,1.83
2019-02-16T10:12:47.713Z,1.71
2019-02-16T10:23:11.873Z,1.97
2019-02-16T10:28:12.041Z,2.14
2019-02-16T10:32:59.333Z,2.29
2019-02-16T10:38:20.479Z,1.91
2019-02-16T10:43:21.723Z,1.94
2019-02-16T10:48:21.885Z,1.95
2019-02-16T10:53:09.189Z,2.13
2019-02-16T10:58:30.380Z,2.26
2019-02-16T11:03:17.874Z,2.57
2019-02-16T11:08:37.990Z,2.73
2019-02-16T11:13:38.493Z,2.20
2019-02-16T11:18:26.904Z,1.92
2019-02-16T11:23:34.347Z,1.84
2019-02-16T11:28:43.511Z,1.70
2019-02-16T11:33:50.944Z,2.17
2019-02-16T11:38:59.283Z,1.63
2019-02-16T11:44:06.541Z,1.52
2019-02-16T11:54:17.466Z,1.58
2019-02-16T11:59:24.738Z,1.49
2019-02-16T12:09:32.980Z,1.33
2019-02-16T12:14:40.299Z,0.88
2019-02-16T12:25:04.832Z,1.27
2019-02-16T12:30:09.475Z,1.34
2019-02-16T12:35:10.547Z,1.44
2019-02-16T12:39:58.724Z,1.50
2019-02-16T12:45:06.155Z,1.60
2019-02-16T12:50:13.402Z,1.72
2019-02-16T12:55:20.823Z,1.40
2019-02-16T13:00:28.062Z,1.92
2019-02-16T13:05:49.362Z,1.20
2019-02-16T13:10:36.622Z,1.47
2019-02-16T13:20:44.804Z,1.64
2019-02-16T13:25:52.176Z,1.52
2019-02-16T13:30:59.390Z,1.31
2019-02-16T13:36:06.725Z,1.15
2019-02-16T13:41:13.823Z,1.74
2019-02-16T13:46:22.186Z,1.69
2019-02-16T13:51:42.323Z,1.36
2019-02-16T13:56:29.669Z,1.06
2019-02-16T14:01:36.846Z,1.14
2019-02-16T14:06:45.373Z,1.39
2019-02-16T14:12:05.375Z,1.40
2019-02-16T14:16:53.939Z,1.58
2019-02-16T14:22:01.180Z,1.53
2019-02-16T14:27:25.457Z,2.03
2019-02-16T14:42:18.455Z,1.52
2019-02-16T14:52:27.946Z,1.54
2019-02-16T14:57:48.189Z,1.46
2019-02-16T15:02:48.241Z,1.51
2019-02-16T15:07:36.668Z,1.83
2019-02-16T15:12:56.897Z,1.68
2019-02-16T15:17:44.392Z,1.54
2019-02-16T15:27:55.810Z,2.00
2019-02-16T15:33:05.166Z,2.12
2019-02-16T15:38:12.268Z,1.26
2019-02-16T15:43:20.520Z,1.13
2019-02-16T15:48:27.950Z,1.40
2019-02-16T15:53:48.203Z,1.52
2019-02-16T16:03:36.861Z,1.28
2019-02-16T16:08:44.323Z,1.94
2019-02-16T16:13:51.511Z,1.59
2019-02-16T16:18:58.872Z,1.54
2019-02-16T16:24:05.900Z,1.51
2019-02-16T16:29:14.161Z,1.94
2019-02-16T16:34:22.455Z,1.82
2019-02-16T16:39:42.851Z,1.67
2019-02-16T16:44:32.189Z,1.76
2019-02-16T16:49:39.529Z,1.83
2019-02-16T16:54:47.801Z,1.73
2019-02-16T16:59:55.182Z,2.11
2019-02-16T17:05:02.420Z,2.01
2019-02-16T17:10:09.708Z,2.20
2019-02-16T17:15:16.946Z,2.45
2019-02-16T17:20:24.415Z,2.07
2019-02-16T17:25:45.389Z,2.52
2019-02-16T17:30:46.680Z,2.48
2019-02-16T17:35:46.862Z,2.74
2019-02-16T17:45:50.884Z,2.43
2019-02-16T17:50:38.064Z,2.78
2019-02-16T17:55:59.452Z,3.30
2019-02-16T18:00:46.954Z,3.22
2019-02-16T18:05:54.030Z,3.54
2019-02-16T18:11:03.080Z,3.72
2019-02-16T18:16:09.693Z,3.65
2019-02-16T18:21:17.733Z,3.43
2019-02-16T18:26:37.898Z,3.97
2019-02-16T18:31:25.169Z,3.48
2019-02-16T18:36:34.527Z,3.87
2019-02-16T18:41:53.604Z,4.22
2019-02-16T18:46:53.581Z,3.92
2019-02-16T18:51:54.800Z,4.49
2019-02-16T18:57:05.876Z,4.39
2019-02-16T19:01:56.289Z,4.54
2019-02-16T19:06:56.439Z,4.74
2019-02-16T19:11:43.807Z,4.33
2019-02-16T19:17:04.029Z,4.26
2019-02-16T19:21:51.348Z,4.38
2019-02-16T19:26:58.564Z,4.26
2019-02-16T19:32:18.916Z,4.35
2019-02-16T19:37:19.013Z,4.47
2019-02-16T19:42:06.393Z,4.87
2019-02-16T19:47:13.716Z,5.20
2019-02-16T19:52:21.069Z,4.86
2019-02-16T19:57:28.393Z,5.40
2019-02-16T20:02:35.780Z,5.34
2019-02-16T20:07:42.904Z,5.10
2019-02-16T20:12:51.211Z,6.79
2019-02-16T20:18:12.191Z,5.75
2019-02-16T20:23:13.358Z,5.17
2019-02-16T20:28:00.679Z,5.72
2019-02-16T20:33:20.997Z,5.60
2019-02-16T20:43:23.041Z,6.18
2019-02-16T20:48:23.207Z,5.70
2019-02-16T20:53:23.393Z,6.11
2019-02-16T20:58:11.661Z,5.99
2019-02-16T21:08:32.674Z,6.71
2019-02-16T21:13:19.870Z,6.07
2019-02-16T21:18:28.140Z,6.49
2019-02-16T21:23:36.663Z,7.45
2019-02-16T21:28:56.667Z,6.72
2019-02-16T21:33:57.894Z,7.30
2019-02-16T21:38:45.072Z,7.00
2019-02-16T21:43:52.218Z,7.08
2019-02-16T21:49:00.454Z,7.22
2019-02-16T21:54:21.659Z,7.44
2019-02-16T21:59:22.839Z,7.65
2019-02-16T22:04:10.397Z,7.63
2019-02-16T22:09:17.508Z,7.19
2019-02-16T22:14:26.385Z,7.18
2019-02-16T22:19:33.485Z,6.94
2019-02-16T22:24:41.760Z,6.44
2019-02-16T22:35:02.871Z,6.75
2019-02-16T22:40:03.985Z,7.35
2019-02-16T22:44:51.427Z,6.75
2019-02-16T22:50:11.580Z,6.85
2019-02-16T22:54:59.080Z,6.61
2019-02-16T23:00:20.210Z,6.67
2019-02-16T23:05:08.514Z,6.77
2019-02-16T23:10:16.612Z,6.42
2019-02-16T23:15:25.043Z,7.27
2019-02-16T23:20:32.413Z,6.62
2019-02-16T23:25:39.621Z,7.19
2019-02-16T23:30:47.812Z,6.69
2019-02-16T23:35:56.345Z,7.42
2019-02-16T23:41:03.613Z,7.47
2019-02-16T23:46:11.022Z,7.57
2019-02-16T23:51:18.266Z,7.05
2019-02-16T23:56:25.668Z,7.55
